createdAt,value
2018-04-28T00:00:50.732Z,2.70
2018-04-28T00:03:18.149Z,2.65
2018-04-28T00:05:45.549Z,1.65
2018-04-28T00:08:13.771Z,3.65
2018-04-28T00:10:41.254Z,2.35
2018-04-28T00:13:08.679Z,2.20
2018-04-28T00:15:36.169Z,2.90
2018-04-28T00:18:03.708Z,3.30
2018-04-28T00:20:31.138Z,2.37
2018-04-28T00:23:03.317Z,2.03
2018-04-28T00:25:44.508Z,2.15
2018-04-28T00:28:25.511Z,2.17
2018-04-28T00:30:59.496Z,1.50
2018-04-28T00:33:31.880Z,1.80
2018-04-28T00:36:19.051Z,1.90
2018-04-28T00:38:53.345Z,2.62
2018-04-28T00:41:20.803Z,1.65
2018-04-28T00:43:48.198Z,2.30
2018-04-28T00:46:22.148Z,2.10
2018-04-28T00:48:57.914Z,2.65
2018-04-28T00:51:31.314Z,1.65
2018-04-28T00:54:15.380Z,3.03
2018-04-28T00:59:40.843Z,3.15
2018-04-28T01:02:10.333Z,2.00
2018-04-28T01:04:40.688Z,1.95
2018-04-28T01:07:08.109Z,2.00
2018-04-28T01:09:35.551Z,2.37
2018-04-28T01:12:02.965Z,1.87
2018-04-28T01:14:37.078Z,1.80
2018-04-28T01:17:08.461Z,2.53
2018-04-28T01:19:52.571Z,4.15
2018-04-28T01:22:40.927Z,1.90
2018-04-28T01:25:11.020Z,2.55
2018-04-28T01:27:48.988Z,1.60
2018-04-28T01:30:35.174Z,1.50
2018-04-28T01:36:03.537Z,3.25
2018-04-28T01:38:35.383Z,2.17
2018-04-28T01:41:14.493Z,1.60
2018-04-28T01:43:49.881Z,1.62
2018-04-28T01:46:22.912Z,1.80
2018-04-28T01:49:05.314Z,1.65
2018-04-28T01:51:43.122Z,1.35
2018-04-28T01:57:23.319Z,2.80
2018-04-28T02:00:10.539Z,1.48
2018-04-28T02:09:05.496Z,3.00
2018-04-28T02:11:46.568Z,1.75
2018-04-28T02:17:12.065Z,2.20
2018-04-28T02:19:42.187Z,2.35
2018-04-28T02:22:15.343Z,2.25
2018-04-28T02:24:57.543Z,1.83
2018-04-28T02:27:35.855Z,1.83
2018-04-28T02:30:04.136Z,1.75
2018-04-28T02:32:32.552Z,2.50
2018-04-28T02:35:00.776Z,1.85
2018-04-28T02:40:27.819Z,2.80
2018-04-28T02:42:58.703Z,2.00
2018-04-28T02:45:45.818Z,1.60
2018-04-28T02:48:17.863Z,2.08
2018-04-28T02:50:46.815Z,1.90
2018-04-28T02:53:18.065Z,1.27
2018-04-28T02:56:03.196Z,1.23
2018-04-28T02:58:40.661Z,2.95
2018-04-28T03:04:07.190Z,2.72
2018-04-28T03:06:48.401Z,1.80
2018-04-28T03:09:15.855Z,3.30
2018-04-28T03:11:45.163Z,2.70
2018-04-28T03:14:17.240Z,1.30
2018-04-28T03:16:56.044Z,1.75
2018-04-28T03:19:26.057Z,2.35
2018-04-28T03:21:54.351Z,2.00
2018-04-28T03:24:24.707Z,1.83
2018-04-28T03:26:58.944Z,1.65
2018-04-28T03:29:35.048Z,2.03
2018-04-28T03:32:06.274Z,2.22
2018-04-28T03:34:43.215Z,1.30
2018-04-28T03:37:22.486Z,2.12
2018-04-28T03:40:23.412Z,1.40
2018-04-28T03:42:51.664Z,1.48
2018-04-28T03:45:25.867Z,1.23
2018-04-28T03:48:07.045Z,1.83
2018-04-28T03:50:35.095Z,1.50
2018-04-28T03:53:07.088Z,1.90
2018-04-28T03:55:35.354Z,2.75
2018-04-28T03:58:14.579Z,1.80
2018-04-28T04:00:54.020Z,1.62
2018-04-28T04:03:22.268Z,1.65
2018-04-28T04:08:49.201Z,2.87
2018-04-28T04:11:30.468Z,2.00
2018-04-28T04:14:07.075Z,2.65
2018-04-28T04:16:40.830Z,2.25
2018-04-28T04:19:10.785Z,2.00
2018-04-28T04:21:50.989Z,2.03
2018-04-28T04:24:20.831Z,2.65
2018-04-28T04:26:59.967Z,2.35
2018-04-28T04:32:29.775Z,3.00
2018-04-28T04:38:08.800Z,2.80
2018-04-28T04:40:56.945Z,1.60
2018-04-28T04:43:40.080Z,1.12
2018-04-28T04:49:17.122Z,2.65
2018-04-28T04:51:46.076Z,1.77
2018-04-28T04:57:11.501Z,2.90
2018-04-28T05:02:40.604Z,3.25
2018-04-28T05:05:14.001Z,2.60
2018-04-28T05:10:47.118Z,4.45
2018-04-28T05:13:20.312Z,2.92
2018-04-28T05:15:53.554Z,4.00
2018-04-28T05:21:28.584Z,3.50
2018-04-28T05:24:07.572Z,2.47
2018-04-28T05:26:37.719Z,3.25
2018-04-28T05:32:19.828Z,3.67
2018-04-28T05:37:57.096Z,2.62
2018-04-28T05:40:41.259Z,2.47
2018-04-28T05:43:17.097Z,2.05
2018-04-28T05:45:56.148Z,1.65
2018-04-28T05:51:34.043Z,2.80
2018-04-28T05:54:03.989Z,1.40
2018-04-28T05:56:41.034Z,2.25
2018-04-28T05:59:10.295Z,2.10
2018-04-28T06:02:00.525Z,1.75
2018-04-28T06:07:52.675Z,2.42
2018-04-28T06:10:50.724Z,2.00
2018-04-28T06:13:29.638Z,2.40
2018-04-28T06:19:12.810Z,2.15
2018-04-28T06:21:40.284Z,2.05
2018-04-28T06:24:07.753Z,1.70
2018-04-28T06:26:35.247Z,2.40
2018-04-28T06:29:02.705Z,2.03
2018-04-28T06:31:30.184Z,2.20
2018-04-28T06:33:57.614Z,1.90
2018-04-28T06:36:25.052Z,2.33
2018-04-28T06:38:52.472Z,1.98
2018-04-28T06:41:19.919Z,2.05
2018-04-28T06:43:47.383Z,1.60
2018-04-28T06:46:14.820Z,1.95
2018-04-28T06:48:42.294Z,3.10
2018-04-28T06:51:09.783Z,2.78
2018-04-28T06:53:37.176Z,2.42
2018-04-28T06:56:04.642Z,1.62
2018-04-28T06:58:32.214Z,2.95
2018-04-28T07:00:59.795Z,1.80
2018-04-28T07:03:27.242Z,2.30
2018-04-28T07:05:54.715Z,2.55
2018-04-28T07:08:22.322Z,1.67
2018-04-28T07:10:49.853Z,1.83
2018-04-28T07:13:17.228Z,1.87
2018-04-28T07:15:44.660Z,2.20
2018-04-28T07:18:12.099Z,3.22
2018-04-28T07:20:39.542Z,2.60
2018-04-28T07:23:06.984Z,1.55
2018-04-28T07:25:34.517Z,2.17
2018-04-28T07:28:01.992Z,2.28
2018-04-28T07:30:29.648Z,2.67
2018-04-28T07:32:57.935Z,2.30
2018-04-28T07:35:25.433Z,2.08
2018-04-28T07:37:52.896Z,2.58
2018-04-28T07:40:20.354Z,2.58
2018-04-28T07:42:47.796Z,2.35
2018-04-28T07:45:15.266Z,3.40
2018-04-28T07:47:42.777Z,2.00
2018-04-28T07:50:10.298Z,3.45
2018-04-28T07:52:37.750Z,2.78
2018-04-28T07:55:05.218Z,2.53
2018-04-28T07:57:33.214Z,2.35
2018-04-28T08:00:00.699Z,2.40
2018-04-28T08:02:28.136Z,2.15
2018-04-28T08:04:55.600Z,3.50
2018-04-28T08:07:23.032Z,3.25
2018-04-28T08:09:50.493Z,3.42
2018-04-28T08:12:17.999Z,4.28
2018-04-28T08:14:45.435Z,3.42
2018-04-28T08:17:12.889Z,2.87
2018-04-28T08:19:40.297Z,2.90
2018-04-28T08:22:09.280Z,2.92
2018-04-28T08:24:36.788Z,2.65
2018-04-28T08:27:04.282Z,2.97
2018-04-28T08:29:31.751Z,2.40
2018-04-28T08:31:59.187Z,3.28
2018-04-28T08:34:26.656Z,3.55
2018-04-28T08:36:54.239Z,2.30
2018-04-28T08:39:21.713Z,3.45
2018-04-28T08:41:49.358Z,2.50
2018-04-28T08:44:17.099Z,2.95
2018-04-28T08:46:44.820Z,2.37
2018-04-28T08:49:12.275Z,2.35
2018-04-28T08:51:39.751Z,2.00
2018-04-28T08:54:07.219Z,2.35
2018-04-28T08:56:34.733Z,2.60
2018-04-28T08:59:02.130Z,2.60
2018-04-28T09:01:29.543Z,4.10
2018-04-28T09:03:56.949Z,2.90
2018-04-28T09:06:24.482Z,2.05
2018-04-28T09:08:52.000Z,3.60
2018-04-28T09:11:19.606Z,3.03
2018-04-28T09:13:47.092Z,2.37
2018-04-28T09:16:14.523Z,2.50
2018-04-28T09:18:41.979Z,2.65
2018-04-28T09:21:09.485Z,2.70
2018-04-28T09:23:37.090Z,3.15
2018-04-28T09:26:04.772Z,2.95
2018-04-28T09:28:32.202Z,3.55
2018-04-28T09:30:59.708Z,2.37
2018-04-28T09:33:27.173Z,2.95
2018-04-28T09:35:54.817Z,2.90
2018-04-28T09:38:22.294Z,3.03
2018-04-28T09:40:50.128Z,4.22
2018-04-28T09:43:17.588Z,2.87
2018-04-28T09:45:45.049Z,2.97
2018-04-28T09:48:12.520Z,2.37
2018-04-28T09:50:40.193Z,2.22
2018-04-28T09:53:07.647Z,3.12
2018-04-28T09:55:35.072Z,2.45
2018-04-28T09:58:05.229Z,2.25
2018-04-28T10:00:35.628Z,2.70
2018-04-28T10:03:05.933Z,2.75
2018-04-28T10:05:33.433Z,3.55
2018-04-28T10:08:01.121Z,2.58
2018-04-28T10:10:28.620Z,2.60
2018-04-28T10:12:56.185Z,2.22
2018-04-28T10:15:23.635Z,4.20
2018-04-28T10:17:51.138Z,2.30
2018-04-28T10:20:18.596Z,3.45
2018-04-28T10:22:46.016Z,2.60
2018-04-28T10:25:13.548Z,2.53
2018-04-28T10:27:41.081Z,2.45
2018-04-28T10:30:08.537Z,2.10
2018-04-28T10:32:36.037Z,2.50
2018-04-28T10:35:03.512Z,3.00
2018-04-28T10:37:30.987Z,2.33
2018-04-28T10:39:58.456Z,2.45
2018-04-28T10:42:25.899Z,2.30
2018-04-28T10:44:53.378Z,2.10
2018-04-28T10:47:20.817Z,2.50
2018-04-28T10:49:48.269Z,3.87
2018-04-28T10:52:15.729Z,2.40
2018-04-28T10:54:43.423Z,2.22
2018-04-28T10:57:10.859Z,2.55
2018-04-28T10:59:38.260Z,2.10
2018-04-28T11:02:05.719Z,2.33
2018-04-28T11:04:33.193Z,2.28
2018-04-28T11:07:00.602Z,2.12
2018-04-28T11:09:28.071Z,2.87
2018-04-28T11:11:55.584Z,2.85
2018-04-28T11:14:23.032Z,2.85
2018-04-28T11:16:50.512Z,3.10
2018-04-28T11:19:18.009Z,2.35
2018-04-28T11:21:45.414Z,2.67
2018-04-28T11:24:12.950Z,2.53
2018-04-28T11:26:40.392Z,2.30
2018-04-28T11:29:07.834Z,3.20
2018-04-28T11:31:35.306Z,3.60
2018-04-28T11:34:02.732Z,4.18
2018-04-28T11:36:30.595Z,3.72
2018-04-28T11:38:58.171Z,2.65
2018-04-28T11:41:27.523Z,3.60
2018-04-28T11:43:55.169Z,2.83
2018-04-28T11:46:23.240Z,3.65
2018-04-28T11:48:51.483Z,3.65
2018-04-28T11:51:20.753Z,3.70
2018-04-28T11:53:50.782Z,3.78
2018-04-28T11:56:18.219Z,3.40
2018-04-28T11:58:47.069Z,3.50
2018-04-28T12:01:14.532Z,3.47
2018-04-28T12:03:43.650Z,5.45
2018-04-28T12:06:11.238Z,3.55
2018-04-28T12:08:39.043Z,4.37
2018-04-28T12:11:06.753Z,4.00
2018-04-28T12:13:34.959Z,4.70
2018-04-28T12:16:03.383Z,4.32
2018-04-28T12:18:32.566Z,4.28
2018-04-28T12:21:01.027Z,4.12
2018-04-28T12:23:28.432Z,4.57
2018-04-28T12:25:55.877Z,4.10
2018-04-28T12:28:24.231Z,4.05
2018-04-28T12:30:53.427Z,4.20
2018-04-28T12:33:22.917Z,4.62
2018-04-28T12:35:50.428Z,4.90
2018-04-28T12:38:17.864Z,3.67
2018-04-28T12:40:46.974Z,3.97
2018-04-28T12:43:14.847Z,3.80
2018-04-28T12:45:42.486Z,3.55
2018-04-28T12:48:10.038Z,3.58
2018-04-28T12:50:37.480Z,4.07
2018-04-28T12:53:04.986Z,3.70
2018-04-28T12:55:32.400Z,3.87
2018-04-28T12:57:59.904Z,4.00
2018-04-28T13:00:27.385Z,4.32
2018-04-28T13:02:54.824Z,4.20
2018-04-28T13:05:22.294Z,3.85
2018-04-28T13:07:49.811Z,4.45
2018-04-28T13:10:17.202Z,4.82
2018-04-28T13:12:45.356Z,3.70
2018-04-28T13:15:12.756Z,4.25
2018-04-28T13:17:40.187Z,5.00
2018-04-28T13:20:07.647Z,4.70
2018-04-28T13:22:35.079Z,5.05
2018-04-28T13:25:02.517Z,6.85
2018-04-28T13:27:30.016Z,4.32
2018-04-28T13:29:57.476Z,5.70
2018-04-28T13:32:24.906Z,6.07
2018-04-28T13:34:52.348Z,5.40
2018-04-28T13:37:19.766Z,4.70
2018-04-28T13:39:47.217Z,6.53
2018-04-28T13:42:14.653Z,5.82
2018-04-28T13:44:42.060Z,6.40
2018-04-28T13:47:09.472Z,6.45
2018-04-28T13:49:36.909Z,6.12
2018-04-28T13:52:04.310Z,6.20
2018-04-28T13:54:31.780Z,6.37
2018-04-28T13:56:59.271Z,5.90
2018-04-28T13:59:26.699Z,5.85
2018-04-28T14:01:54.188Z,6.95
2018-04-28T14:04:21.666Z,5.72
2018-04-28T14:06:49.088Z,5.22
2018-04-28T14:09:16.490Z,4.35
2018-04-28T14:11:43.955Z,4.97
2018-04-28T14:14:11.346Z,5.93
2018-04-28T14:16:38.772Z,7.03
2018-04-28T14:19:06.226Z,6.28
2018-04-28T14:21:33.732Z,6.57
2018-04-28T14:24:01.166Z,6.28
2018-04-28T14:26:28.653Z,6.53
2018-04-28T14:28:56.088Z,5.07
2018-04-28T14:31:23.499Z,5.68
2018-04-28T14:33:50.894Z,7.30
2018-04-28T14:36:18.313Z,8.68
2018-04-28T14:38:45.780Z,5.00
2018-04-28T14:41:13.292Z,6.25
2018-04-28T14:43:40.716Z,5.55
2018-04-28T14:46:08.222Z,5.93
2018-04-28T14:48:35.612Z,4.85
2018-04-28T14:51:03.114Z,6.55
2018-04-28T14:53:30.557Z,5.30
2018-04-28T14:55:57.999Z,6.15
2018-04-28T14:58:25.409Z,6.40
2018-04-28T15:00:52.838Z,6.57
2018-04-28T15:03:20.267Z,5.65
2018-04-28T15:05:47.676Z,5.50
2018-04-28T15:08:15.143Z,5.40
2018-04-28T15:10:42.683Z,6.30
2018-04-28T15:13:10.125Z,4.45
2018-04-28T15:15:37.601Z,4.40
2018-04-28T15:18:05.080Z,4.87
2018-04-28T15:20:32.497Z,5.62
2018-04-28T15:22:59.931Z,8.02
2018-04-28T15:25:27.391Z,5.55
2018-04-28T15:27:54.796Z,4.80
2018-04-28T15:30:22.203Z,4.55
2018-04-28T15:32:49.645Z,4.35
2018-04-28T15:35:17.140Z,5.32
2018-04-28T15:37:44.576Z,4.87
2018-04-28T15:40:12.124Z,4.60
2018-04-28T15:42:39.578Z,4.93
2018-04-28T15:45:07.072Z,5.75
2018-04-28T15:47:34.479Z,6.00
2018-04-28T15:50:01.972Z,7.82
2018-04-28T15:52:29.431Z,4.78
2018-04-28T15:54:56.875Z,6.65
2018-04-28T15:57:24.369Z,6.60
2018-04-28T15:59:51.795Z,7.12
2018-04-28T16:02:19.238Z,5.53
2018-04-28T16:04:46.688Z,7.32
2018-04-28T16:07:14.192Z,6.47
2018-04-28T16:09:41.687Z,7.07
2018-04-28T16:12:09.122Z,7.35
2018-04-28T16:14:36.580Z,5.95
2018-04-28T16:17:04.065Z,7.32
2018-04-28T16:19:31.497Z,6.80
2018-04-28T16:21:58.976Z,6.68
2018-04-28T16:24:26.578Z,6.30
2018-04-28T16:26:54.065Z,7.45
2018-04-28T16:29:21.575Z,6.43
2018-04-28T16:31:49.022Z,6.95
2018-04-28T16:34:16.433Z,7.95
2018-04-28T16:36:43.888Z,6.55
2018-04-28T16:39:11.381Z,7.43
2018-04-28T16:41:38.852Z,6.18
2018-04-28T16:44:06.258Z,6.10
2018-04-28T16:46:33.749Z,7.53
2018-04-28T16:49:01.248Z,8.55
2018-04-28T16:51:28.679Z,9.20
2018-04-28T16:53:56.101Z,6.70
2018-04-28T16:56:23.545Z,6.12
2018-04-28T16:58:50.932Z,6.40
2018-04-28T17:01:18.485Z,7.15
2018-04-28T17:03:45.931Z,7.43
2018-04-28T17:06:13.687Z,8.65
2018-04-28T17:08:41.181Z,7.20
2018-04-28T17:11:08.712Z,6.75
2018-04-28T17:13:36.158Z,7.57
2018-04-28T17:16:03.581Z,5.28
2018-04-28T17:18:31.073Z,8.98
2018-04-28T17:20:58.465Z,7.60
2018-04-28T17:23:25.927Z,9.15
2018-04-28T17:25:53.378Z,6.15
2018-04-28T17:28:20.945Z,7.75
2018-04-28T17:30:48.467Z,6.47
2018-04-28T17:33:15.912Z,5.82
2018-04-28T17:35:43.391Z,5.12
2018-04-28T17:38:10.843Z,9.32
2018-04-28T17:40:38.313Z,5.95
2018-04-28T17:43:05.748Z,7.05
2018-04-28T17:45:33.234Z,6.10
2018-04-28T17:48:00.679Z,7.35
2018-04-28T17:50:28.163Z,6.18
2018-04-28T17:52:55.681Z,7.35
2018-04-28T17:55:23.324Z,6.80
2018-04-28T17:57:50.799Z,16.30
2018-04-28T18:00:18.262Z,6.90
2018-04-28T18:02:45.794Z,8.40
2018-04-28T18:05:13.503Z,6.87
2018-04-28T18:07:40.996Z,6.72
2018-04-28T18:10:08.493Z,7.95
2018-04-28T18:12:36.022Z,7.18
2018-04-28T18:15:03.455Z,6.75
2018-04-28T18:17:30.925Z,7.80
2018-04-28T18:19:58.420Z,7.47
2018-04-28T18:22:25.900Z,7.50
2018-04-28T18:24:53.453Z,8.38
2018-04-28T18:27:21.000Z,7.47
2018-04-28T18:29:48.416Z,7.70
2018-04-28T18:32:16.346Z,10.85
2018-04-28T18:34:43.759Z,6.45
2018-04-28T18:37:11.203Z,6.85
2018-04-28T18:39:38.796Z,8.00
2018-04-28T18:42:06.241Z,6.87
2018-04-28T18:44:34.250Z,8.35
2018-04-28T18:47:01.765Z,7.25
2018-04-28T18:49:29.183Z,8.20
2018-04-28T18:51:56.712Z,7.70
2018-04-28T18:54:24.122Z,8.35
2018-04-28T18:56:51.565Z,6.62
2018-04-28T18:59:18.995Z,7.55
2018-04-28T19:01:46.437Z,7.37
2018-04-28T19:04:13.892Z,9.55
2018-04-28T19:06:41.360Z,7.80
2018-04-28T19:09:08.969Z,7.15
2018-04-28T19:11:36.420Z,8.57
2018-04-28T19:14:03.916Z,7.97
2018-04-28T19:16:31.386Z,9.60
2018-04-28T19:18:58.851Z,8.90
2018-04-28T19:21:26.391Z,8.73
2018-04-28T19:23:53.793Z,9.30
2018-04-28T19:26:21.214Z,9.48
2018-04-28T19:28:48.871Z,10.02
2018-04-28T19:31:16.336Z,8.15
2018-04-28T19:33:43.764Z,9.02
2018-04-28T19:36:11.199Z,10.23
2018-04-28T19:38:38.656Z,10.38
2018-04-28T19:41:06.192Z,8.60
2018-04-28T19:43:33.784Z,8.77
2018-04-28T19:46:01.964Z,9.32
2018-04-28T19:48:29.395Z,9.32
2018-04-28T19:50:56.840Z,9.05
2018-04-28T19:53:24.325Z,9.38
2018-04-28T19:55:51.796Z,9.43
2018-04-28T19:58:19.260Z,9.93
2018-04-28T20:00:46.695Z,10.52
2018-04-28T20:03:14.104Z,10.18
2018-04-28T20:05:41.558Z,10.43
2018-04-28T20:08:09.009Z,8.25
2018-04-28T20:10:36.425Z,8.13
2018-04-28T20:13:03.868Z,8.75
2018-04-28T20:15:31.267Z,9.75
2018-04-28T20:17:58.698Z,8.88
2018-04-28T20:20:26.169Z,8.52
2018-04-28T20:23:05.404Z,9.27
2018-04-28T20:25:32.798Z,9.27
2018-04-28T20:28:00.244Z,10.57
2018-04-28T20:30:27.646Z,10.60
2018-04-28T20:32:55.129Z,10.30
2018-04-28T20:35:22.572Z,9.23
2018-04-28T20:37:50.034Z,9.45
2018-04-28T20:40:17.443Z,11.55
2018-04-28T20:42:44.889Z,9.27
2018-04-28T20:45:12.313Z,9.23
2018-04-28T20:47:39.844Z,10.93
2018-04-28T20:50:07.266Z,7.87
2018-04-28T20:52:34.688Z,9.65
2018-04-28T20:55:02.095Z,7.90
2018-04-28T20:57:29.604Z,8.30
2018-04-28T20:59:57.238Z,9.30
2018-04-28T21:02:25.563Z,8.32
2018-04-28T21:04:53.128Z,9.30
2018-04-28T21:07:20.605Z,7.20
2018-04-28T21:09:48.032Z,10.07
2018-04-28T21:12:15.524Z,9.77
2018-04-28T21:14:42.950Z,9.70
2018-04-28T21:17:10.412Z,8.95
2018-04-28T21:19:37.906Z,12.07
2018-04-28T21:22:05.311Z,9.82
2018-04-28T21:24:32.781Z,9.80
2018-04-28T21:27:00.184Z,9.63
2018-04-28T21:29:27.616Z,8.40
2018-04-28T21:31:55.084Z,9.30
2018-04-28T21:34:22.560Z,10.40
2018-04-28T21:36:50.036Z,10.32
2018-04-28T21:39:17.528Z,11.55
2018-04-28T21:41:44.964Z,11.48
2018-04-28T21:44:12.544Z,11.02
2018-04-28T21:46:40.000Z,8.88
2018-04-28T21:49:07.476Z,8.35
2018-04-28T21:51:34.945Z,9.85
2018-04-28T21:54:02.492Z,7.87
2018-04-28T21:56:29.907Z,9.32
2018-04-28T21:58:57.454Z,9.93
2018-04-28T22:01:24.870Z,10.00
2018-04-28T22:03:52.282Z,10.30
2018-04-28T22:06:19.768Z,11.40
2018-04-28T22:08:47.226Z,9.75
2018-04-28T22:11:14.685Z,10.70
2018-04-28T22:13:42.162Z,10.10
2018-04-28T22:16:09.596Z,9.85
2018-04-28T22:18:37.020Z,9.90
2018-04-28T22:21:04.471Z,10.20
2018-04-28T22:23:31.959Z,10.38
2018-04-28T22:25:59.338Z,11.48
2018-04-28T22:28:26.847Z,11.52
2018-04-28T22:30:54.425Z,9.88
2018-04-28T22:33:21.879Z,10.55
2018-04-28T22:35:49.464Z,10.93
2018-04-28T22:38:16.930Z,10.15
2018-04-28T22:40:44.382Z,11.52
2018-04-28T22:43:11.883Z,10.77
2018-04-28T22:45:39.403Z,10.18
2018-04-28T22:48:06.950Z,11.65
2018-04-28T22:50:34.440Z,11.57
2018-04-28T22:53:01.986Z,10.50
2018-04-28T22:55:30.364Z,9.90
2018-04-28T22:57:57.882Z,11.10
2018-04-28T23:00:25.574Z,10.40
2018-04-28T23:02:53.061Z,11.90
2018-04-28T23:05:20.667Z,12.45
2018-04-28T23:07:48.181Z,11.70
2018-04-28T23:10:15.733Z,11.48
2018-04-28T23:12:43.156Z,10.02
2018-04-28T23:15:10.689Z,12.30
2018-04-28T23:17:38.199Z,11.93
2018-04-28T23:20:05.601Z,13.80
2018-04-28T23:22:33.074Z,11.68
2018-04-28T23:25:00.596Z,12.52
2018-04-28T23:27:28.017Z,13.38
2018-04-28T23:29:55.510Z,10.70
2018-04-28T23:32:23.094Z,11.23
2018-04-28T23:34:50.964Z,10.93
2018-04-28T23:37:18.756Z,12.45
2018-04-28T23:39:46.230Z,15.63
2018-04-28T23:42:13.781Z,14.75
2018-04-28T23:44:41.305Z,10.52
2018-04-28T23:47:08.820Z,12.50
2018-04-28T23:49:36.397Z,10.63
2018-04-28T23:52:04.239Z,10.88
2018-04-28T23:54:31.718Z,11.55
2018-04-28T23:57:00.326Z,11.02
2018-04-28T23:59:27.909Z,10.15
